Time;durP1;ratioP1;P1;durP2;ratioP2;P2;SDS_P1;SDS_P2;PMS_P1;PMS_P2;Temp;Humidity;BMP_temperature;BMP_pressure;BME280_temperature;BME280_humidity;BME280_pressure;Samples;Min_cycle;Max_cycle;Signal;HPM_P1;HPM_P2
2023/08/11 00:02:22;;;;;;;9.60;9.30;;;;;;;-141.02;100.00;81772.31;5134813;27;20224;-57
2023/08/11 00:04:50;;;;;;;9.30;9.10;;;;;;;-141.02;100.00;81523.75;5135209;27;20192;-60
2023/08/11 00:07:19;;;;;;;10.27;9.98;;;;;;;-141.02;100.00;79784.44;5135058;27;20196;-66
2023/08/11 00:09:46;;;;;;;10.10;9.80;;;;;;;-141.02;100.00;80778.25;5134833;27;20661;-67
2023/08/11 00:12:13;;;;;;;11.40;11.10;;;;;;;-141.02;100.00;79784.44;5134700;27;20749;-66
2023/08/11 00:14:40;;;;;;;12.00;11.63;;;;;;;-141.02;100.00;78046.00;5134904;27;20585;-67
2023/08/11 00:17:07;;;;;;;11.80;11.50;;;;;;;-141.02;100.00;76556.59;5134678;27;20283;-67
2023/08/11 00:19:33;;;;;;;12.45;12.05;;;;;;;-141.02;100.00;75812.16;5134858;27;20192;-65
2023/08/11 00:22:00;;;;;;;12.15;11.75;;;;;;;-141.02;100.00;75315.94;5134397;27;20594;-67
2023/08/11 00:24:29;;;;;;;12.52;12.13;;;;;;;-141.02;100.00;75812.16;5134466;27;20319;-63
2023/08/11 00:26:56;;;;;;;12.43;12.02;;;;;;;-141.02;100.00;75067.88;5134688;27;20189;-66
2023/08/11 00:29:24;;;;;;;12.02;11.65;;;;;;;-141.02;100.00;74323.72;5134681;27;20231;-64
2023/08/11 00:31:51;;;;;;;12.35;11.95;;;;;;;-141.02;100.00;73083.88;5134582;27;20229;-67
2023/08/11 00:34:18;;;;;;;12.20;11.80;;;;;;;-141.02;100.00;73331.81;5134256;27;20719;-63
2023/08/11 00:36:51;;;;;;;12.68;12.27;;;;;;;-141.02;100.00;73083.88;5134706;27;20275;-67
2023/08/11 00:39:18;;;;;;;13.45;13.05;;;;;;;-141.02;100.00;72340.16;5134227;27;20713;-64
2023/08/11 00:41:46;;;;;;;12.85;12.45;;;;;;;-141.02;100.00;72340.16;5133948;27;20740;-66
2023/08/11 00:45:02;;;;;;;12.90;12.50;;;;;;;-141.02;100.00;71844.47;5134491;27;20197;-67
2023/08/11 00:47:29;;;;;;;12.75;12.35;;;;;;;-141.02;100.00;72092.31;5134172;27;20202;-65
2023/08/11 00:49:57;;;;;;;12.20;11.80;;;;;;;-141.02;100.00;72340.16;5134800;27;20288;-67
2023/08/11 00:52:24;;;;;;;12.55;12.15;;;;;;;-141.02;100.00;72588.06;5133940;27;20725;-66
2023/08/11 00:54:53;;;;;;;12.90;12.50;;;;;;;-141.02;100.00;72835.97;5134176;27;20283;-67
2023/08/11 00:57:22;;;;;;;12.00;11.60;;;;;;;-141.02;100.00;73331.81;5133752;27;20192;-66
2023/08/11 00:59:50;;;;;;;11.68;11.38;;;;;;;-141.02;100.00;73827.72;5134098;27;20280;-66
2023/08/11 01:02:17;;;;;;;11.30;11.00;;;;;;;-141.02;100.00;73827.72;5133613;27;20697;-65
2023/08/11 01:04:44;;;;;;;10.77;10.48;;;;;;;-141.02;100.00;73579.75;5133985;27;20192;-67
2023/08/11 01:07:22;;;;;;;11.07;10.77;;;;;;;-141.02;100.00;74075.72;5133600;27;20562;-67
2023/08/11 01:09:55;;;;;;;11.70;11.40;;;;;;;-141.02;100.00;73331.81;5133296;27;20654;-68
2023/08/11 01:12:30;;;;;;;10.85;10.55;;;;;;;-141.02;100.00;73827.72;5133548;27;20193;-67
2023/08/11 01:15:10;;;;;;;10.55;10.25;;;;;;;-141.02;100.00;74323.72;5133548;27;20195;-65
2023/08/11 01:17:40;;;;;;;11.10;10.80;;;;;;;-141.02;100.00;73827.72;5133439;27;20713;-66
2023/08/11 01:20:10;;;;;;;10.32;10.02;;;;;;;-141.02;100.00;74075.72;5133782;27;20555;-67
2023/08/11 01:22:39;;;;;;;10.38;10.07;;;;;;;-141.02;100.00;75067.88;5133245;27;20745;-68
2023/08/11 01:25:10;;;;;;;10.57;10.27;;;;;;;-141.02;100.00;76556.59;5133379;27;20228;-67
2023/08/11 01:27:44;;;;;;;10.32;10.02;;;;;;;-141.02;100.00;78294.28;5133305;27;20188;-67
2023/08/11 01:30:12;;;;;;;9.50;9.20;;;;;;;-141.02;100.00;79784.44;5133306;27;20190;-67
2023/08/11 01:32:39;;;;;;;8.88;8.68;;;;;;;-141.02;100.00;81026.72;5133492;27;20578;-65
2023/08/11 01:35:08;;;;;;;9.70;9.40;;;;;;;-141.02;100.00;81523.75;5133190;27;20658;-67
2023/08/11 01:37:35;;;;;;;9.20;9.00;;;;;;;-141.02;100.00;82020.88;5133370;27;20189;-65
2023/08/11 01:40:04;;;;;;;8.95;8.75;;;;;;;-141.02;100.00;83015.31;5133400;27;20260;-66
2023/08/11 01:42:33;;;;;;;8.50;8.30;;;;;;;-141.02;100.00;83263.97;5133039;27;20235;-67
2023/08/11 01:45:00;;;;;;;8.25;8.05;;;;;;;-141.02;100.00;83015.31;5132981;27;20204;-67
2023/08/11 01:47:27;;;;;;;8.40;8.20;;;;;;;-141.02;100.00;83015.31;5133632;27;20227;-66
2023/08/11 01:49:56;;;;;;;8.60;8.40;;;;;;;-141.02;100.00;83263.97;5133235;27;20241;-65
2023/08/11 01:52:25;;;;;;;9.02;8.82;;;;;;;-141.02;100.00;83761.31;5133305;27;20192;-67
2023/08/11 01:54:52;;;;;;;9.05;8.85;;;;;;;-141.02;100.00;84010.03;5133195;27;20278;-65
2023/08/11 01:57:20;;;;;;;8.52;8.32;;;;;;;-141.02;100.00;85005.03;5132850;27;20662;-67
2023/08/11 01:59:49;;;;;;;8.27;8.07;;;;;;;-141.02;100.00;85751.50;5132942;28;20745;-66
2023/08/11 02:02:18;;;;;;;7.60;7.40;;;;;;;-141.02;100.00;86498.09;5132785;28;20732;-67
2023/08/11 02:04:45;;;;;;;7.50;7.30;;;;;;;-141.02;100.00;87493.84;5133129;28;20196;-67
2023/08/11 02:07:12;;;;;;;7.40;7.20;;;;;;;-141.02;100.00;88489.84;5133072;28;20253;-67
2023/08/11 02:09:39;;;;;;;6.70;6.50;;;;;;;-141.02;100.00;89735.28;5133149;28;20292;-67
2023/08/11 02:12:07;;;;;;;6.70;6.50;;;;;;;-141.02;100.00;89735.28;5132857;28;20287;-66
2023/08/11 02:14:34;;;;;;;6.57;6.40;;;;;;;-141.02;100.00;88987.97;5133042;28;20220;-67
2023/08/11 02:17:04;;;;;;;6.85;6.65;;;;;;;-141.02;100.00;88987.97;5132779;28;20283;-67
2023/08/11 02:19:31;;;;;;;6.90;6.70;;;;;;;-141.02;100.00;89237.03;5132905;27;20192;-67
2023/08/11 02:21:58;;;;;;;6.60;6.40;;;;;;;-141.02;100.00;89237.03;5136197;27;20283;-65
2023/08/11 02:24:25;;;;;;;6.90;6.70;;;;;;;-141.02;100.00;89984.41;5136782;27;20628;-67
2023/08/11 02:26:52;;;;;;;6.95;6.75;;;;;;;-141.02;100.00;91230.38;5137035;27;20275;-67
2023/08/11 02:29:19;;;;;;;6.30;6.20;;;;;;;-141.02;100.00;92476.78;5136983;27;20196;-67
2023/08/11 02:31:47;;;;;;;6.30;6.20;;;;;;;-141.02;100.00;93474.22;5136923;27;20220;-66
2023/08/11 02:34:16;;;;;;;5.20;5.10;;;;;;;-141.02;100.00;94222.50;5136653;27;20228;-67
2023/08/11 02:36:43;;;;;;;5.10;5.00;;;;;;;-141.02;100.00;94721.44;5136464;27;20279;-65
2023/08/11 02:39:10;;;;;;;5.70;5.60;;;;;;;-141.02;100.00;94970.94;5136550;27;20188;-67
2023/08/11 02:41:37;;;;;;;5.60;5.50;;;;;;;-141.02;100.00;95470.00;5136845;27;20204;-63
2023/08/11 02:44:04;;;;;;;5.60;5.50;;;;;;;-141.02;100.00;95719.53;5136283;27;20719;-65
2023/08/11 02:46:32;;;;;;;5.05;4.95;;;;;;;-141.02;100.00;96218.69;5136507;27;20629;-64
2023/08/11 02:48:59;;;;;;;5.40;5.30;;;;;;;-141.02;100.00;96468.31;5136272;27;20188;-67
2023/08/11 02:51:27;;;;;;;5.22;5.13;;;;;;;-141.02;100.00;97217.22;5136637;27;20188;-67
2023/08/11 02:53:55;;;;;;;5.10;5.00;;;;;;;-141.02;100.00;97466.91;5136302;27;20658;-66
2023/08/11 02:56:22;;;;;;;5.28;5.18;;;;;;;-141.02;100.00;97716.59;5136197;27;20655;-65
2023/08/11 02:58:49;;;;;;;5.18;5.07;;;;;;;-141.02;100.00;97966.31;5136508;27;20192;-65
2023/08/11 03:01:17;;;;;;;5.32;5.22;;;;;;;-141.02;100.00;97966.31;5136429;27;20228;-66
2023/08/11 03:03:44;;;;;;;5.20;5.10;;;;;;;-141.02;100.00;97966.31;5135988;27;20235;-66
2023/08/11 03:06:11;;;;;;;5.50;5.40;;;;;;;-141.02;100.00;97966.31;5136223;27;20574;-63
2023/08/11 03:08:41;;;;;;;5.55;5.45;;;;;;;-141.02;100.00;98216.03;5136386;27;20193;-67
2023/08/11 03:11:08;;;;;;;5.30;5.20;;;;;;;-141.02;100.00;98216.03;5136123;27;20215;-68
2023/08/11 03:13:35;;;;;;;5.70;5.60;;;;;;;-141.02;100.00;98465.78;5135849;27;20236;-67
2023/08/11 03:16:03;;;;;;;6.10;6.00;;;;;;;-141.02;100.00;98715.56;5136141;27;20196;-67
2023/08/11 03:18:30;;;;;;;6.03;5.93;;;;;;;-141.02;100.00;98715.56;5135755;27;20649;-68
2023/08/11 03:20:57;;;;;;;6.60;6.40;;;;;;;-141.02;100.00;98715.56;5135856;27;20284;-67
2023/08/11 03:23:24;;;;;;;5.90;5.80;;;;;;;-141.02;100.00;98465.78;5135688;27;20313;-67
2023/08/11 03:25:53;;;;;;;6.72;6.53;;;;;;;-141.02;100.00;97966.31;5135669;27;20318;-67
2023/08/11 03:28:20;;;;;;;6.30;6.20;;;;;;;-141.02;100.00;97716.59;5135628;27;20200;-66
2023/08/11 03:30:47;;;;;;;7.30;7.10;;;;;;;-141.02;100.00;97716.59;5135455;27;20192;-67
2023/08/11 03:33:14;;;;;;;7.10;6.90;;;;;;;-141.02;100.00;97966.31;5135498;27;20283;-67
2023/08/11 03:35:41;;;;;;;7.30;7.10;;;;;;;-141.02;100.00;97966.31;5135797;27;20232;-66
2023/08/11 03:38:08;;;;;;;7.30;7.10;;;;;;;-141.02;100.00;97966.31;5135382;27;20231;-67
2023/08/11 03:40:35;;;;;;;7.47;7.28;;;;;;;-141.02;100.00;97966.31;5135756;27;20196;-66
2023/08/11 03:43:04;;;;;;;7.30;7.10;;;;;;;-141.02;100.00;98216.03;5135551;27;20232;-67
2023/08/11 03:45:31;;;;;;;6.90;6.70;;;;;;;-141.02;100.00;98465.78;5135637;27;20234;-68
2023/08/11 03:47:58;;;;;;;7.03;6.82;;;;;;;-141.02;100.00;98465.78;5135553;27;20224;-67
2023/08/11 03:50:25;;;;;;;7.20;7.00;;;;;;;-141.02;100.00;98216.03;5135536;27;20197;-66
2023/08/11 03:52:52;;;;;;;6.85;6.65;;;;;;;-141.02;100.00;97966.31;5135183;27;20659;-66
2023/08/11 03:55:19;;;;;;;7.60;7.40;;;;;;;-141.02;100.00;97966.31;5135175;27;20239;-66
2023/08/11 03:57:46;;;;;;;7.70;7.50;;;;;;;-141.02;100.00;97716.59;5135065;27;20239;-68
2023/08/11 04:00:19;;;;;;;7.72;7.53;;;;;;;-141.02;100.00;97466.91;5135328;27;20279;-68
2023/08/11 04:02:46;;;;;;;8.10;7.90;;;;;;;-141.02;100.00;97217.22;5135293;27;20262;-67
2023/08/11 04:05:13;;;;;;;8.63;8.43;;;;;;;-141.02;100.00;96468.31;5135215;27;20196;-67
2023/08/11 04:07:40;;;;;;;9.80;9.50;;;;;;;-141.02;100.00;95719.53;5134950;27;20634;-67
2023/08/11 04:10:11;;;;;;;10.50;10.20;;;;;;;-141.02;100.00;95220.47;5134799;27;20189;-66
2023/08/11 04:12:38;;;;;;;10.70;10.40;;;;;;;-141.02;100.00;94471.97;5134785;27;20196;-67
2023/08/11 04:15:06;;;;;;;12.05;11.70;;;;;;;-141.02;100.00;91479.63;5134815;27;20199;-67
2023/08/11 04:17:36;;;;;;;11.98;11.68;;;;;;;-141.02;100.00;89984.41;5135009;27;20223;-67
2023/08/11 04:20:11;;;;;;;11.10;10.80;;;;;;;-141.02;100.00;92227.47;5134649;27;20574;-67
2023/08/11 04:22:39;;;;;;;11.10;10.80;;;;;;;-141.02;100.00;92975.47;5134862;27;20219;-68
2023/08/11 04:25:09;;;;;;;11.95;11.65;;;;;;;-141.02;100.00;90981.13;5134341;27;20607;-68
2023/08/11 04:27:36;;;;;;;12.40;12.00;;;;;;;-141.02;100.00;89486.16;5134653;27;20192;-67
2023/08/11 04:30:03;;;;;;;12.88;12.48;;;;;;;-141.02;100.00;87493.84;5134855;27;20567;-63
2023/08/11 04:32:30;;;;;;;13.20;12.80;;;;;;;-141.02;100.00;86000.34;5134485;27;20254;-57
2023/08/11 04:34:59;;;;;;;11.60;11.30;;;;;;;-141.02;100.00;86249.22;5134354;27;20630;-68
2023/08/11 04:37:26;;;;;;;11.60;11.30;;;;;;;-141.02;100.00;86249.22;5134584;27;20192;-67
2023/08/11 04:39:53;;;;;;;11.52;11.23;;;;;;;-141.02;100.00;85502.66;5134497;27;20747;-66
2023/08/11 04:42:21;;;;;;;12.00;11.60;;;;;;;-141.02;100.00;85005.03;5135319;27;20224;-67
2023/08/11 04:44:48;;;;;;;12.98;12.57;;;;;;;-141.02;100.00;83263.97;5133741;27;20260;-68
2023/08/11 04:47:15;;;;;;;12.85;12.45;;;;;;;-141.02;100.00;82518.06;5134121;27;20282;-66
2023/08/11 04:49:42;;;;;;;13.38;12.98;;;;;;;-141.02;100.00;83263.97;5134308;27;20192;-66
2023/08/11 04:52:10;;;;;;;13.20;12.80;;;;;;;-141.02;100.00;84756.25;5134265;27;20283;-66
2023/08/11 04:54:37;;;;;;;12.40;12.00;;;;;;;-141.02;100.00;87493.84;5134037;27;20284;-67
2023/08/11 04:57:04;;;;;;;13.10;12.70;;;;;;;-141.02;100.00;87244.88;5134212;27;20636;-66
2023/08/11 04:59:32;;;;;;;13.60;13.20;;;;;;;-141.02;100.00;85751.50;5134239;27;20235;-66
2023/08/11 05:02:00;;;;;;;13.57;13.18;;;;;;;-141.02;100.00;84507.50;5134080;27;20203;-65
2023/08/11 05:04:27;;;;;;;13.70;13.30;;;;;;;-141.02;100.00;83512.63;5133626;27;20220;-67
2023/08/11 05:06:54;;;;;;;14.80;14.30;;;;;;;-141.02;100.00;81275.25;5133804;27;20275;-67
2023/08/11 05:09:22;;;;;;;14.90;14.40;;;;;;;-141.02;100.00;80529.75;5133633;27;20189;-68
2023/08/11 05:11:50;;;;;;;14.75;14.25;;;;;;;-141.02;100.00;80529.75;5134044;27;20224;-68
2023/08/11 05:14:17;;;;;;;14.60;14.10;;;;;;;-141.02;100.00;80032.88;5133486;27;20232;-69
2023/08/11 05:16:44;;;;;;;15.02;14.52;;;;;;;-141.02;100.00;79287.66;5133883;27;20205;-68
2023/08/11 05:19:12;;;;;;;14.85;14.35;;;;;;;-141.02;100.00;78542.63;5133889;27;20224;-68
2023/08/11 05:21:40;;;;;;;14.70;14.20;;;;;;;-141.02;100.00;78046.00;5133790;27;20214;-67
2023/08/11 05:24:10;;;;;;;14.68;14.18;;;;;;;-141.02;100.00;77797.72;5133320;27;20236;-68
2023/08/11 05:26:38;;;;;;;14.65;14.15;;;;;;;-141.02;100.00;77549.47;5133596;27;20188;-65
2023/08/11 05:29:06;;;;;;;15.48;14.88;;;;;;;-141.02;100.00;76804.81;5133383;27;20227;-67
2023/08/11 05:31:33;;;;;;;14.50;14.00;;;;;;;-141.02;100.00;78294.28;5133227;27;20655;-67
2023/08/11 05:34:00;;;;;;;14.00;13.50;;;;;;;-141.02;100.00;78542.63;5133328;27;20189;-67
2023/08/11 05:36:27;;;;;;;14.43;13.93;;;;;;;-141.02;100.00;78046.00;5133581;27;20253;-68
2023/08/11 05:38:54;;;;;;;14.32;13.82;;;;;;;-141.02;100.00;77549.47;5133174;27;20188;-68
2023/08/11 05:41:21;;;;;;;14.57;14.07;;;;;;;-141.02;100.00;77301.22;5133188;27;20203;-68
2023/08/11 05:43:49;;;;;;;15.45;14.85;;;;;;;-141.02;100.00;76556.59;5133373;27;20303;-67
2023/08/11 05:46:16;;;;;;;14.75;14.25;;;;;;;-141.02;100.00;78542.63;5133158;27;20655;-67
2023/08/11 05:48:48;;;;;;;13.90;13.40;;;;;;;-141.02;100.00;80529.75;5133110;27;20227;-68
2023/08/11 05:51:16;;;;;;;12.70;12.30;;;;;;;-141.02;100.00;81275.25;5133110;27;20279;-67
2023/08/11 05:53:43;;;;;;;11.52;11.23;;;;;;;-141.02;100.00;82518.06;5133342;27;20279;-65
2023/08/11 05:56:10;;;;;;;10.45;10.15;;;;;;;-141.02;100.00;83263.97;5133457;27;20608;-67
2023/08/11 05:58:37;;;;;;;10.35;10.05;;;;;;;-141.02;100.00;82020.88;5133180;27;20192;-68
2023/08/11 06:01:05;;;;;;;10.13;9.82;;;;;;;-141.02;100.00;83512.63;5132922;28;20287;-67
2023/08/11 06:03:32;;;;;;;9.57;9.27;;;;;;;-141.02;100.00;84258.75;5132871;27;20231;-65
2023/08/11 06:06:01;;;;;;;10.50;10.20;;;;;;;-141.02;100.00;84258.75;5132939;28;20719;-66
2023/08/11 06:08:28;;;;;;;10.52;10.23;;;;;;;-141.02;100.00;85005.03;5132908;27;20231;-65
2023/08/11 06:10:55;;;;;;;11.18;10.88;;;;;;;-141.02;100.00;82766.69;5133091;27;20228;-67
2023/08/11 06:13:22;;;;;;;11.43;11.13;;;;;;;-141.02;100.00;82766.69;5133054;28;20205;-68
2023/08/11 06:15:50;;;;;;;10.70;10.40;;;;;;;-141.02;100.00;83263.97;5133117;28;20286;-68
2023/08/11 06:18:18;;;;;;;11.25;10.95;;;;;;;-141.02;100.00;82269.47;5133074;28;20231;-67
2023/08/11 06:20:46;;;;;;;10.60;10.30;;;;;;;-141.02;100.00;83512.63;5133115;27;20279;-67
2023/08/11 06:23:14;;;;;;;12.10;11.70;;;;;;;-141.02;100.00;81523.75;5132476;28;20277;-66
2023/08/11 06:25:41;;;;;;;12.60;12.20;;;;;;;-141.02;100.00;80281.31;5133166;28;20264;-67
2023/08/11 06:28:08;;;;;;;12.50;12.10;;;;;;;-141.02;100.00;80281.31;5133290;27;20208;-68
2023/08/11 06:30:35;;;;;;;12.18;11.77;;;;;;;-141.02;100.00;80032.88;5132982;28;20276;-68
2023/08/11 06:33:02;;;;;;;13.32;12.93;;;;;;;-141.02;100.00;79287.66;5132951;28;20224;-67
2023/08/11 06:35:31;;;;;;;13.35;12.95;;;;;;;-141.02;100.00;79536.03;5132972;28;20224;-68
2023/08/11 06:37:59;;;;;;;14.20;13.70;;;;;;;-141.02;100.00;79287.66;5132579;28;20193;-69
2023/08/11 06:40:26;;;;;;;15.30;14.70;;;;;;;-141.02;100.00;77053.00;5132596;28;20666;-69
2023/08/11 06:42:53;;;;;;;14.55;14.05;;;;;;;-141.02;100.00;76060.28;5132815;28;20637;-64
2023/08/11 06:45:20;;;;;;;14.27;13.77;;;;;;;-141.02;100.00;77053.00;5132839;28;20228;-69
2023/08/11 06:47:47;;;;;;;14.48;13.98;;;;;;;-141.02;100.00;76060.28;5132657;28;20283;-68
2023/08/11 06:50:14;;;;;;;15.40;14.80;;;;;;;-141.02;100.00;76308.44;5132648;28;20614;-66
2023/08/11 06:52:42;;;;;;;14.75;14.25;;;;;;;-141.02;100.00;76308.44;5132798;28;20253;-69
2023/08/11 06:55:09;;;;;;;14.88;14.38;;;;;;;-141.02;100.00;75315.94;5132532;28;20237;-69
2023/08/11 06:57:37;;;;;;;15.85;15.25;;;;;;;-141.02;100.00;74571.75;5132787;28;20224;-69
2023/08/11 07:00:07;;;;;;;15.55;14.95;;;;;;;-141.02;100.00;73827.72;5132288;28;20192;-69
2023/08/11 07:02:34;;;;;;;15.13;14.52;;;;;;;-141.02;100.00;75067.88;5132614;28;20224;-70
2023/08/11 07:05:01;;;;;;;16.05;15.35;;;;;;;-141.02;100.00;72340.16;5132599;28;20310;-68
2023/08/11 07:07:28;;;;;;;15.90;15.30;;;;;;;-141.02;100.00;71596.63;5134753;27;20265;-68
2023/08/11 07:09:56;;;;;;;15.00;14.40;;;;;;;-141.02;100.00;72092.31;5136371;27;20275;-68
2023/08/11 07:12:23;;;;;;;15.00;14.40;;;;;;;-141.02;100.00;72588.06;5136413;27;20224;-68
2023/08/11 07:14:51;;;;;;;15.70;15.10;;;;;;;-141.02;100.00;71844.47;5136221;27;20271;-71
2023/08/11 07:17:18;;;;;;;16.27;15.57;;;;;;;-141.02;100.00;72340.16;5135839;27;20667;-70
2023/08/11 07:19:45;;;;;;;16.17;15.48;;;;;;;-141.02;100.00;70110.03;5136153;27;20275;-70
2023/08/11 07:22:12;;;;;;;16.70;16.00;;;;;;;-141.02;100.00;67881.38;5136149;27;20203;-68
2023/08/11 07:24:38;;;;;;;15.90;15.30;;;;;;;-141.02;100.00;69614.66;5135427;27;20327;-69
2023/08/11 07:27:07;;;;;;;16.05;15.35;;;;;;;-141.02;100.00;67881.38;5135974;27;20749;-70
2023/08/11 07:29:34;;;;;;;15.85;15.25;;;;;;;-141.02;100.00;68624.09;5135841;27;20189;-70
2023/08/11 07:32:01;;;;;;;16.27;15.57;;;;;;;-141.02;100.00;67881.38;5135933;27;20193;-68
2023/08/11 07:34:28;;;;;;;16.80;16.10;;;;;;;-141.02;100.00;67138.78;5135859;27;20272;-71
2023/08/11 07:36:55;;;;;;;17.60;16.80;;;;;;;-141.02;100.00;67386.28;5135524;27;20195;-70
2023/08/11 07:39:22;;;;;;;16.90;16.20;;;;;;;-141.02;99.04;67881.38;5135741;27;20652;-70
2023/08/11 07:41:49;;;;;;;17.55;16.75;;;;;;;-141.02;95.62;67881.38;5135533;27;20192;-69
2023/08/11 07:44:17;;;;;;;17.80;17.00;;;;;;;-141.02;95.33;66643.84;5135316;27;20263;-69
2023/08/11 07:46:44;;;;;;;18.15;17.35;;;;;;;-141.02;92.11;64912.06;5135243;27;20287;-69
2023/08/11 07:49:12;;;;;;;18.50;17.60;;;;;;;-141.02;91.93;64417.41;5136103;27;20196;-68
2023/08/11 07:51:40;;;;;;;18.48;17.58;;;;;;;-141.02;92.88;63428.38;5135534;27;20192;-71
2023/08/11 07:54:07;;;;;;;18.48;17.58;;;;;;;-141.02;93.45;62686.75;5135401;27;20199;-70
2023/08/11 07:56:34;;;;;;;18.40;17.50;;;;;;;-141.02;92.95;63428.38;5135124;27;20227;-70
2023/08/11 07:59:01;;;;;;;18.35;17.55;;;;;;;-141.02;90.14;62933.94;5135325;27;20283;-67
2023/08/11 08:01:30;;;;;;;18.55;17.65;;;;;;;-141.02;88.44;62686.75;5135338;27;20272;-71
2023/08/11 08:03:57;;;;;;;17.90;17.10;;;;;;;-141.02;91.43;63922.84;5135203;27;20220;-67
2023/08/11 08:06:24;;;;;;;18.73;17.83;;;;;;;-141.02;91.11;64170.13;5134896;27;20692;-68
2023/08/11 08:08:51;;;;;;;18.70;17.80;;;;;;;-141.02;85.41;59721.97;5134899;27;20678;-67
2023/08/11 08:11:19;;;;;;;18.35;17.50;;;;;;;-141.02;90.95;57993.72;5135069;27;20275;-70
2023/08/11 08:13:46;;;;;;;17.38;16.58;;;;;;;-141.02;93.97;60709.94;5134764;27;20200;-65
2023/08/11 08:16:13;;;;;;;17.95;17.15;;;;;;;-141.02;94.35;59475.03;5134982;27;20631;-70
2023/08/11 08:18:41;;;;;;;17.77;16.98;;;;;;;-141.02;91.62;61945.31;5133576;27;20198;-71
2023/08/11 08:21:08;;;;;;;18.58;17.67;;;;;;;-141.02;87.68;57448.03;5134620;27;20620;-70
2023/08/11 08:23:35;;;;;;;18.23;17.33;;;;;;;-141.02;90.08;62933.94;5134472;27;20228;-67
2023/08/11 08:26:03;;;;;;;18.98;18.08;;;;;;;-141.02;84.73;61698.22;5134470;27;20315;-70
2023/08/11 08:28:30;;;;;;;18.55;17.65;;;;;;;-141.02;84.34;58981.19;5134740;27;20241;-70
2023/08/11 08:30:57;;;;;;;18.58;17.67;;;;;;;-141.02;85.01;57500.06;5134472;27;20197;-67
2023/08/11 08:33:24;;;;;;;18.40;17.50;;;;;;;-141.02;85.59;57403.69;5134640;27;20196;-70
2023/08/11 08:35:53;;;;;;;18.27;17.38;;;;;;;-141.02;87.65;58487.41;5134544;27;20192;-68
2023/08/11 08:38:20;;;;;;;18.40;17.50;;;;;;;-141.02;88.14;57993.72;5134584;27;20279;-68
2023/08/11 08:40:47;;;;;;;18.13;17.23;;;;;;;-141.02;87.04;55913.63;5134414;27;20271;-71
2023/08/11 08:43:16;;;;;;;18.02;17.13;;;;;;;-141.02;88.25;55659.25;5134514;27;20219;-70
2023/08/11 08:45:44;;;;;;;18.08;17.17;;;;;;;-141.02;86.55;54235.44;5134298;27;20306;-70
2023/08/11 08:48:22;;;;;;;17.85;16.95;;;;;;;-141.02;89.90;57912.72;5134470;27;20223;-71
2023/08/11 08:50:49;;;;;;;18.08;17.17;;;;;;;-141.02;86.32;56511.09;5134295;27;20188;-69
2023/08/11 08:53:18;;;;;;;17.95;17.05;;;;;;;-141.02;85.53;56960.25;5133973;27;20632;-72
2023/08/11 08:55:46;;;;;;;18.25;17.35;;;;;;;-141.02;83.56;56035.03;5133887;27;20232;-70
2023/08/11 08:58:14;;;;;;;18.65;17.65;;;;;;;-141.02;80.86;55275.78;5134203;27;20271;-72
2023/08/11 09:00:43;;;;;;;18.63;17.63;;;;;;;-141.02;82.33;54096.78;5134197;27;20196;-69
2023/08/11 09:03:12;;;;;;;18.55;17.55;;;;;;;-141.02;81.15;52677.47;5134070;27;20195;-71
2023/08/11 09:05:39;;;;;;;18.15;17.25;;;;;;;-141.02;83.85;54826.88;5134073;27;20228;-66
2023/08/11 09:08:06;;;;;;;18.73;17.73;;;;;;;-141.02;80.66;53156.94;5133954;27;20223;-58
2023/08/11 09:10:37;;;;;;;18.92;17.92;;;;;;;-141.02;80.77;52531.16;5134091;27;20614;-58
2023/08/11 09:13:04;;;;;;;18.80;17.80;;;;;;;-141.02;80.83;51655.28;5133967;27;20204;-71
2023/08/11 09:15:31;;;;;;;18.35;17.45;;;;;;;-141.02;83.69;51056.72;5133886;27;20279;-71
2023/08/11 09:17:59;;;;;;;18.45;17.55;;;;;;;-141.02;84.30;50712.25;5133469;27;20279;-69
2023/08/11 09:20:27;;;;;;;18.65;17.65;;;;;;;-141.02;82.72;50854.66;5133748;27;20718;-71
2023/08/11 09:22:54;;;;;;;18.58;17.58;;;;;;;-141.02;83.35;51131.78;5133302;27;20196;-70
2023/08/11 09:25:21;;;;;;;18.85;17.85;;;;;;;-141.02;83.06;51535.94;5133360;27;20307;-68
2023/08/11 09:27:51;;;;;;;19.20;18.20;;;;;;;-141.02;80.51;52386.75;5133678;27;20235;-69
2023/08/11 09:30:19;;;;;;;19.17;18.17;;;;;;;-141.02;79.70;53821.34;5133617;27;20188;-69
2023/08/11 09:32:49;;;;;;;18.65;17.75;;;;;;;-141.02;75.15;53457.34;5133574;27;20264;-71
2023/08/11 09:35:22;;;;;;;19.38;18.38;;;;;;;-141.02;75.47;53232.03;5133589;27;20283;-70
2023/08/11 09:37:49;;;;;;;19.38;18.38;;;;;;;-141.02;74.47;54616.88;5133278;27;20185;-69
2023/08/11 09:40:17;;;;;;;19.73;18.63;;;;;;;-141.02;70.88;52205.81;5133196;27;20275;-70
2023/08/11 09:42:44;;;;;;;19.48;18.38;;;;;;;-141.02;73.96;52244.31;5133115;27;20670;-69
2023/08/11 09:45:13;;;;;;;19.42;18.33;;;;;;;-141.02;75.95;51278.03;5133325;27;20230;-69
2023/08/11 09:47:40;;;;;;;19.25;18.15;;;;;;;-141.02;76.34;53141.53;5133335;27;20650;-68
2023/08/11 09:50:09;;;;;;;18.98;17.98;;;;;;;-141.02;75.21;51880.47;5133311;27;20279;-69
2023/08/11 09:52:38;;;;;;;18.45;17.45;;;;;;;-141.02;74.70;51281.88;5133298;27;20196;-70
2023/08/11 09:55:08;;;;;;;18.73;17.73;;;;;;;-141.02;73.85;50746.91;5133242;27;20323;-68
2023/08/11 09:57:37;;;;;;;18.67;17.67;;;;;;;-141.02;74.84;52024.84;5132983;27;20291;-69
2023/08/11 10:00:11;;;;;;;18.88;17.88;;;;;;;-141.02;75.89;51705.31;5132964;27;20283;-67
2023/08/11 10:02:44;;;;;;;18.83;17.83;;;;;;;-141.02;75.76;51025.94;5132951;28;20747;-69
2023/08/11 10:05:12;;;;;;;18.65;17.75;;;;;;;-141.02;75.88;51942.06;5132839;28;20713;-71
2023/08/11 10:07:44;;;;;;;18.88;17.77;;;;;;;-141.02;74.60;52094.16;5133114;28;20318;-69
2023/08/11 10:10:14;;;;;;;18.40;17.40;;;;;;;-141.02;73.69;52082.59;5133117;28;20192;-71
2023/08/11 10:12:48;;;;;;;18.65;17.65;;;;;;;-141.02;73.70;51260.72;5133223;27;20185;-70
2023/08/11 10:15:18;;;;;;;18.75;17.75;;;;;;;-141.02;74.67;52552.34;5133166;28;20196;-69
2023/08/11 10:17:47;;;;;;;18.38;17.48;;;;;;;-141.02;71.99;53840.59;5133072;28;20235;-70
2023/08/11 10:20:14;;;;;;;18.48;17.48;;;;;;;-141.02;70.75;55938.69;5132717;28;20228;-68
2023/08/11 10:22:42;;;;;;;18.65;17.65;;;;;;;-141.02;68.23;55984.94;5133109;27;20279;-69
2023/08/11 10:25:10;;;;;;;19.23;18.13;;;;;;;-141.02;66.97;53565.19;5132728;28;20737;-71
2023/08/11 10:27:39;;;;;;;18.65;17.65;;;;;;;-141.02;70.00;50198.53;5132930;28;20602;-68
2023/08/11 10:30:09;;;;;;;18.40;17.40;;;;;;;-141.02;71.75;50462.13;5132935;27;20279;-68
2023/08/11 10:32:36;;;;;;;18.63;17.52;;;;;;;-141.02;72.55;51237.63;5132805;28;20239;-70
2023/08/11 10:35:07;;;;;;;18.35;17.35;;;;;;;-141.02;74.60;52223.13;5132960;27;20252;-71
2023/08/11 10:37:35;;;;;;;18.35;17.35;;;;;;;-141.02;73.29;48630.88;5132888;28;20188;-71
2023/08/11 10:40:05;;;;;;;18.42;17.42;;;;;;;-141.02;74.49;47392.66;5132520;28;20292;-72
2023/08/11 10:42:32;;;;;;;18.27;17.27;;;;;;;-141.02;76.55;47661.81;5135272;27;20697;-70
2023/08/11 10:45:13;;;;;;;18.25;17.25;;;;;;;-141.02;75.47;47596.44;5136723;27;20260;-72
2023/08/11 10:47:44;;;;;;;18.25;17.25;;;;;;;-141.02;75.41;47271.56;5136462;27;20672;-71
2023/08/11 10:50:14;;;;;;;18.25;17.25;;;;;;;-141.02;75.66;47354.22;5136764;27;20247;-69
2023/08/11 10:52:41;;;;;;;17.92;16.92;;;;;;;-141.02;76.22;48277.06;5136403;27;20200;-69
2023/08/11 10:55:09;;;;;;;17.92;17.02;;;;;;;-141.02;74.42;47640.66;5136247;27;20283;-69
2023/08/11 10:57:36;;;;;;;18.02;17.13;;;;;;;-141.02;75.41;48238.59;5136232;27;20295;-71
2023/08/11 11:00:03;;;;;;;18.20;17.20;;;;;;;-141.02;72.06;48069.41;5136502;27;20245;-70
2023/08/11 11:02:32;;;;;;;18.17;17.17;;;;;;;-141.02;71.81;47932.88;5136519;27;20300;-64
2023/08/11 11:04:59;;;;;;;18.58;17.58;;;;;;;-141.02;73.64;48361.66;5136612;27;20216;-67